Time;durP1;ratioP1;P1;durP2;ratioP2;P2;SDS_P1;SDS_P2;PMS_P1;PMS_P2;Temp;Humidity;BMP_temperature;BMP_pressure;BME280_temperature;BME280_humidity;BME280_pressure;Samples;Min_cycle;Max_cycle;Signal;HPM_P1;HPM_P2
2022/06/02 00:02:21;;;;;;;;;;;;;;;-144.99;100.00;52407.31;4947079;29;19976;-68
2022/06/02 00:04:53;;;;;;;;;;;;;;;-144.99;100.00;52370.63;4946983;29;20046;-67
2022/06/02 00:07:28;;;;;;;;;;;;;;;-144.99;100.00;52380.84;4948689;29;19980;-67
2022/06/02 00:10:02;;;;;;;;;;;;;;;-144.99;100.00;52374.72;4949095;29;19969;-67
2022/06/02 00:12:31;;;;;;;;;;;;;;;-144.99;100.00;52376.75;4943764;29;19978;-66
2022/06/02 00:15:03;;;;;;;;;;;;;;;-144.99;100.00;52415.47;4948148;29;19970;-66
2022/06/02 00:17:35;;;;;;;;;;;;;;;-144.99;100.00;52393.06;4936929;28;19984;-66
2022/06/02 00:20:05;;;;;;;;;;;;;;;-144.99;100.00;52378.78;4942347;29;19959;-66
2022/06/02 00:22:36;;;;;;;;;;;;;;;-144.99;100.00;52374.72;4940875;29;20132;-66
2022/06/02 00:25:08;;;;;;;;;;;;;;;-144.99;100.00;52397.13;4946119;29;19973;-66
2022/06/02 00:27:38;;;;;;;;;;;;;;;-144.99;100.00;52378.78;4939183;29;19990;-66
2022/06/02 00:30:09;;;;;;;;;;;;;;;-144.99;100.00;52374.72;4937607;29;20178;-66
2022/06/02 00:32:44;;;;;;;;;;;;;;;-144.99;100.00;52378.78;4945800;29;19987;-66
2022/06/02 00:35:14;;;;;;;;;;;;;;;-144.99;100.00;52431.78;4937836;29;20424;-66
2022/06/02 00:37:45;;;;;;;;;;;;;;;-144.99;100.00;52391.03;4944677;28;19996;-66
2022/06/02 00:40:13;;;;;;;;;;;;;;;-144.99;100.00;52413.44;4940076;29;19949;-65
2022/06/02 00:42:49;;;;;;;;;;;;;;;-144.99;100.00;52403.25;4944922;29;19971;-66
2022/06/02 00:45:16;;;;;;;;;;;;;;;-144.99;100.00;52407.31;4942051;29;20022;-66
2022/06/02 00:47:48;;;;;;;;;;;;;;;-144.99;100.00;52358.41;4940474;29;19997;-66
2022/06/02 00:50:33;;;;;;;;;;;;;;;-144.99;100.00;52362.50;4943660;29;19968;-65
2022/06/02 00:53:04;;;;;;;;;;;;;;;-144.99;100.00;52399.19;4950209;29;20061;-65
2022/06/02 00:58:29;;;;;;;;;;;;;;;-144.99;100.00;52378.78;4944798;28;19989;-68
2022/06/02 01:01:01;;;;;;;;;;;;;;;-144.99;100.00;52366.56;4948138;28;20513;-67
2022/06/02 01:03:32;;;;;;;;;;;;;;;-144.99;100.00;52391.03;4944653;29;20017;-67
2022/06/02 01:06:05;;;;;;;;;;;;;;;-144.99;100.00;52407.31;4950507;29;19973;-65
2022/06/02 01:08:45;;;;;;;;;;;;;;;-144.99;100.00;52419.56;4946834;29;20020;-63
2022/06/02 01:11:14;;;;;;;;;;;;;;;-144.99;100.00;52386.94;4950427;29;20517;-64
2022/06/02 01:13:57;;;;;;;;;;;;;;;-144.99;100.00;52333.94;4942401;29;19966;-63
2022/06/02 01:16:29;;;;;;;;;;;;;;;-144.99;100.00;52403.25;4952296;28;20438;-68
2022/06/02 01:19:02;;;;;;;;;;;;;;;-144.99;100.00;52382.88;4950178;28;20218;-68
2022/06/02 01:21:43;;;;;;;;;;;;;;;-144.99;100.00;52427.72;4959303;29;20023;-69
2022/06/02 01:24:25;;;;;;;;;;;;;;;-144.99;100.00;52439.94;4964402;28;19972;-69
2022/06/02 01:27:01;;;;;;;;;;;;;;;-144.99;100.00;52388.97;4952825;29;19991;-68
2022/06/02 01:29:45;;;;;;;;;;;;;;;-144.99;100.00;52419.56;4940901;29;19966;-69
2022/06/02 01:32:15;;;;;;;;;;;;;;;-144.99;100.00;52415.47;4949432;29;20151;-69
2022/06/02 01:34:51;;;;;;;;;;;;;;;-144.99;100.00;52415.47;4954698;28;20023;-68
2022/06/02 01:37:22;;;;;;;;;;;;;;;-144.99;100.00;52413.44;4942693;29;19989;-69
2022/06/02 01:40:06;;;;;;;;;;;;;;;-144.99;100.00;52415.47;4943290;29;19970;-68
2022/06/02 01:42:39;;;;;;;;;;;;;;;-144.99;100.00;52378.78;4946613;29;20025;-69
2022/06/02 01:45:12;;;;;;;;;;;;;;;-144.99;100.00;52395.09;4952779;28;19978;-69
2022/06/02 01:47:41;;;;;;;;;;;;;;;-144.99;100.00;52397.13;4944456;29;19995;-69
2022/06/02 01:50:20;;;;;;;;;;;;;;;-144.99;100.00;52427.72;4949099;29;19988;-69
2022/06/02 01:52:53;;;;;;;;;;;;;;;-144.99;100.00;52399.19;4944290;29;20447;-69
2022/06/02 01:55:28;;;;;;;;;;;;;;;-144.99;100.00;52378.78;4953379;28;20415;-69
2022/06/02 01:58:02;;;;;;;;;;;;;;;-144.99;100.00;52382.88;4948128;29;19991;-67
2022/06/02 02:00:31;;;;;;;;;;;;;;;-144.99;100.00;52395.09;4944952;29;19969;-67
2022/06/02 02:03:03;;;;;;;;;;;;;;;-144.99;100.00;52346.19;4944169;29;20454;-68
2022/06/02 02:05:34;;;;;;;;;;;;;;;-144.99;100.00;52423.63;4955945;29;19970;-70
2022/06/02 02:08:17;;;;;;;;;;;;;;;-144.99;100.00;52419.56;4948930;29;19994;-68
2022/06/02 02:10:49;;;;;;;;;;;;;;;-144.99;100.00;52366.56;4946397;29;19975;-69
2022/06/02 02:13:20;;;;;;;;;;;;;;;-144.99;100.00;52370.63;4951379;28;19992;-69
2022/06/02 02:15:50;;;;;;;;;;;;;;;-144.99;100.00;52378.78;4951977;29;19972;-68
2022/06/02 02:18:26;;;;;;;;;;;;;;;-144.99;100.00;52356.38;4953616;28;19999;-68
2022/06/02 02:21:09;;;;;;;;;;;;;;;-144.99;100.00;52401.22;4950863;29;19976;-68
2022/06/02 02:23:42;;;;;;;;;;;;;;;-144.99;100.00;52386.94;4945221;29;19972;-68
2022/06/02 02:26:12;;;;;;;;;;;;;;;-144.99;100.00;52403.25;4956875;28;19979;-68
2022/06/02 02:28:45;;;;;;;;;;;;;;;-144.99;100.00;52374.72;4951793;29;19978;-68
2022/06/02 02:31:19;;;;;;;;;;;;;;;-144.99;100.00;52419.56;4945251;29;19976;-69
2022/06/02 02:33:51;;;;;;;;;;;;;;;-144.99;100.00;52427.72;4952729;28;19976;-69
2022/06/02 02:36:21;;;;;;;;;;;;;;;-144.99;100.00;52374.72;4946950;29;19976;-69
2022/06/02 02:38:52;;;;;;;;;;;;;;;-144.99;100.00;52395.09;4950026;29;19951;-69
2022/06/02 02:41:20;;;;;;;;;;;;;;;-144.99;100.00;52368.59;4951434;29;20371;-69
2022/06/02 02:43:52;;;;;;;;;;;;;;;-144.99;100.00;52338.03;4951424;29;19983;-68
2022/06/02 02:46:21;;;;;;;;;;;;;;;-144.99;100.00;52399.19;4944400;29;20352;-70
2022/06/02 02:48:54;;;;;;;;;;;;;;;-144.99;100.00;52378.78;4944122;29;19974;-71
2022/06/02 02:51:30;;;;;;;;;;;;;;;-144.99;100.00;52397.13;4945241;29;19984;-70
2022/06/02 02:54:00;;;;;;;;;;;;;;;-144.99;100.00;52405.28;4946938;29;19976;-70
2022/06/02 02:56:30;;;;;;;;;;;;;;;-144.99;100.00;52452.16;4945039;28;19977;-69
2022/06/02 02:59:01;;;;;;;;;;;;;;;-144.99;100.00;52388.97;4948600;29;19983;-69
2022/06/02 03:01:36;;;;;;;;;;;;;;;-144.99;100.00;52399.19;4953940;28;20316;-70
2022/06/02 03:04:08;;;;;;;;;;;;;;;-144.99;100.00;52386.94;4947009;28;19969;-70
2022/06/02 03:06:37;;;;;;;;;;;;;;;-144.99;100.00;52403.25;4947898;29;20487;-70
2022/06/02 03:09:08;;;;;;;;;;;;;;;-144.99;100.00;52399.19;4958153;29;19980;-70
2022/06/02 03:11:40;;;;;;;;;;;;;;;-144.99;100.00;52405.28;4957018;29;19958;-70
2022/06/02 03:14:11;;;;;;;;;;;;;;;-144.99;100.00;52413.44;4967733;28;20424;-69
2022/06/02 03:16:38;;;;;;;;;;;;;;;-144.99;100.00;52419.56;4947673;28;19993;-68
2022/06/02 03:19:13;;;;;;;;;;;;;;;-144.99;100.00;52403.25;4948869;28;19976;-66
2022/06/02 03:21:45;;;;;;;;;;;;;;;-144.99;100.00;52419.56;4945113;29;19978;-65
2022/06/02 03:24:29;;;;;;;;;;;;;;;-144.99;100.00;52421.59;4949846;29;19976;-66
2022/06/02 03:27:03;;;;;;;;;;;;;;;-144.99;100.00;52395.09;4949551;29;19996;-65
2022/06/02 03:29:35;;;;;;;;;;;;;;;-144.99;100.00;52391.03;4942740;29;19972;-65
2022/06/02 03:32:06;;;;;;;;;;;;;;;-144.99;100.00;52448.09;4946641;29;20007;-67
2022/06/02 03:34:36;;;;;;;;;;;;;;;-144.99;100.00;52401.22;4946563;29;19972;-65
2022/06/02 03:37:08;;;;;;;;;;;;;;;-144.99;100.00;52403.25;4953900;29;20391;-65
2022/06/02 03:39:44;;;;;;;;;;;;;;;-144.99;100.00;52374.72;4946598;29;19977;-65
2022/06/02 03:42:17;;;;;;;;;;;;;;;-144.99;100.00;52395.09;4948649;29;19937;-65
2022/06/02 03:44:51;;;;;;;;;;;;;;;-144.99;100.00;52419.56;4954648;28;19978;-65
2022/06/02 03:47:24;;;;;;;;;;;;;;;-144.99;100.00;52419.56;4945765;29;20003;-65
2022/06/02 03:50:05;;;;;;;;;;;;;;;-144.99;100.00;52386.94;4940057;29;19980;-65
2022/06/02 03:52:43;;;;;;;;;;;;;;;-144.99;100.00;52415.47;4948607;29;19969;-64
2022/06/02 03:55:18;;;;;;;;;;;;;;;-144.99;100.00;52401.22;4952604;28;19972;-64
2022/06/02 03:57:51;;;;;;;;;;;;;;;-144.99;100.00;52391.03;4942074;29;20017;-64
2022/06/02 04:00:20;;;;;;;;;;;;;;;-144.99;100.00;52384.91;4945638;29;19986;-65
2022/06/02 04:02:51;;;;;;;;;;;;;;;-144.99;100.00;52380.84;4942043;29;20451;-65
2022/06/02 04:05:28;;;;;;;;;;;;;;;-144.99;100.00;52407.31;4956336;28;19978;-65
2022/06/02 04:08:03;;;;;;;;;;;;;;;-144.99;100.00;52378.78;4947145;29;20000;-65
2022/06/02 04:10:32;;;;;;;;;;;;;;;-144.99;100.00;52399.19;4946427;29;20348;-65
2022/06/02 04:16:02;;;;;;;;;;;;;;;-144.99;100.00;52399.19;4944263;28;20052;-65
2022/06/02 04:18:34;;;;;;;;;;;;;;;-144.99;100.00;52415.47;4950323;29;19989;-65
2022/06/02 04:21:07;;;;;;;;;;;;;;;-144.99;100.00;52407.31;4948322;29;19985;-65
2022/06/02 04:23:48;;;;;;;;;;;;;;;-144.99;100.00;52354.34;4947062;29;19974;-65
2022/06/02 04:26:32;;;;;;;;;;;;;;;-144.99;100.00;52393.06;4952157;29;19984;-65
2022/06/02 04:29:06;;;;;;;;;;;;;;;-144.99;100.00;52386.94;4946556;29;19980;-64
2022/06/02 04:31:42;;;;;;;;;;;;;;;-144.99;100.00;52368.59;4953071;29;20365;-64
2022/06/02 04:34:15;;;;;;;;;;;;;;;-144.99;100.00;52370.63;4948374;28;19979;-66
2022/06/02 04:36:46;;;;;;;;;;;;;;;-144.99;100.00;52380.84;4948180;29;19989;-66
2022/06/02 04:39:19;;;;;;;;;;;;;;;-144.99;100.00;52419.56;4942660;28;21212;-66
2022/06/02 04:41:54;;;;;;;;;;;;;;;-144.99;100.00;52382.88;4945726;29;19977;-66
2022/06/02 04:44:25;;;;;;;;;;;;;;;-144.99;100.00;52354.34;4948455;29;20000;-66
2022/06/02 04:46:59;;;;;;;;;;;;;;;-144.99;100.00;52358.41;4948320;29;20418;-66
2022/06/02 04:49:32;;;;;;;;;;;;;;;-144.99;100.00;52358.41;4960336;28;20047;-66
2022/06/02 04:52:03;;;;;;;;;;;;;;;-144.99;100.00;52358.41;4964710;28;19979;-66
2022/06/02 04:54:36;;;;;;;;;;;;;;;-144.99;100.00;52388.97;4949452;29;19979;-66
2022/06/02 04:57:07;;;;;;;;;;;;;;;-144.99;100.00;52374.72;4944603;28;20049;-66
2022/06/02 04:59:38;;;;;;;;;;;;;;;-144.99;100.00;52358.41;4954359;28;19974;-66
2022/06/02 05:02:08;;;;;;;;;;;;;;;-144.99;100.00;52368.59;4951843;29;19974;-66
2022/06/02 05:04:42;;;;;;;;;;;;;;;-144.99;100.00;52411.41;4949274;28;20412;-66
2022/06/02 05:07:13;;;;;;;;;;;;;;;-144.99;100.00;52370.63;4942158;28;19998;-65
2022/06/02 05:09:44;;;;;;;;;;;;;;;-144.99;100.00;52309.50;4944512;28;20009;-65
2022/06/02 05:12:19;;;;;;;;;;;;;;;-144.99;100.00;52362.50;4951620;28;19981;-66
2022/06/02 05:14:50;;;;;;;;;;;;;;;-144.99;100.00;52395.09;4936044;28;20004;-65
2022/06/02 05:17:28;;;;;;;;;;;;;;;-144.99;100.00;52362.50;4955141;28;20003;-70
2022/06/02 05:20:09;;;;;;;;;;;;;;;-144.99;100.00;52411.41;4942270;29;20454;-72
2022/06/02 05:22:45;;;;;;;;;;;;;;;-144.99;100.00;52374.72;4949601;29;20010;-69
2022/06/02 05:25:30;;;;;;;;;;;;;;;-144.99;100.00;52378.78;4949762;28;19981;-68
2022/06/02 05:28:07;;;;;;;;;;;;;;;-144.99;100.00;52317.66;4946855;29;19988;-68
2022/06/02 05:30:53;;;;;;;;;;;;;;;-144.99;100.00;52378.78;4940052;29;19978;-67
2022/06/02 05:33:37;;;;;;;;;;;;;;;-144.99;100.00;52358.41;4949260;29;20047;-67
2022/06/02 05:36:13;;;;;;;;;;;;;;;-144.99;100.00;52380.84;4943240;29;19974;-67
2022/06/02 05:38:49;;;;;;;;;;;;;;;-144.99;100.00;52378.78;4940411;29;19964;-67
2022/06/02 05:41:20;;;;;;;;;;;;;;;-144.99;100.00;52370.63;4945900;29;19964;-67
2022/06/02 05:43:56;;;;;;;;;;;;;;;-144.99;100.00;52374.72;4949748;29;19978;-66
2022/06/02 05:46:32;;;;;;;;;;;;;;;-144.99;100.00;52366.56;4944076;29;19997;-67
2022/06/02 05:49:06;;;;;;;;;;;;;;;-144.99;100.00;52321.72;4934899;28;19970;-68
2022/06/02 05:51:36;;;;;;;;;;;;;;;-144.99;100.00;52350.25;4941417;29;19970;-67
2022/06/02 05:54:19;;;;;;;;;;;;;;;-144.99;100.00;52338.03;4948997;29;19999;-67
2022/06/02 05:56:53;;;;;;;;;;;;;;;-144.99;100.00;52370.63;4943418;29;20056;-67
2022/06/02 05:59:27;;;;;;;;;;;;;;;-144.99;100.00;52370.63;4943720;29;19967;-67
2022/06/02 06:02:00;;;;;;;;;;;;;;;-144.99;100.00;52354.34;4941105;29;20427;-67
2022/06/02 06:04:39;;;;;;;;;;;;;;;-144.99;100.00;52374.72;4947289;29;19983;-67
2022/06/02 06:07:11;;;;;;;;;;;;;;;-144.99;100.00;52329.88;4941855;29;20367;-67
2022/06/02 06:09:42;;;;;;;;;;;;;;;-144.99;100.00;52325.81;4951227;29;20003;-67
2022/06/02 06:12:32;;;;;;;;;;;;;;;-144.99;100.00;52329.88;4943842;29;19973;-67
2022/06/02 06:15:03;;;;;;;;;;;;;;;-144.99;100.00;52317.66;4941874;29;20391;-67
2022/06/02 06:17:36;;;;;;;;;;;;;;;-144.99;100.00;52354.34;4952534;28;19997;-67
2022/06/02 06:20:06;;;;;;;;;;;;;;;-144.99;100.00;52338.03;4941036;29;19978;-67
2022/06/02 06:22:52;;;;;;;;;;;;;;;-144.99;100.00;52350.25;4950182;29;20066;-67
2022/06/02 06:25:27;;;;;;;;;;;;;;;-144.99;100.00;52354.34;4941599;29;19988;-71
2022/06/02 06:28:04;;;;;;;;;;;;;;;-144.99;100.00;52338.03;4942238;29;20003;-70
2022/06/02 06:30:36;;;;;;;;;;;;;;;-144.99;100.00;52364.53;4945661;29;20024;-70
2022/06/02 06:33:12;;;;;;;;;;;;;;;-144.99;100.00;52354.34;4940933;29;19994;-70
2022/06/02 06:35:45;;;;;;;;;;;;;;;-144.99;100.00;52333.94;4948070;28;19971;-70
2022/06/02 06:38:23;;;;;;;;;;;;;;;-144.99;100.00;52344.16;4952856;29;20002;-67
2022/06/02 06:41:06;;;;;;;;;;;;;;;-144.99;100.00;52356.38;4951991;29;20449;-67
2022/06/02 06:43:40;;;;;;;;;;;;;;;-144.99;100.00;52346.19;4957346;29;20379;-67
2022/06/02 06:46:16;;;;;;;;;;;;;;;-144.99;100.00;52356.38;4962645;23;19984;-70
2022/06/02 06:48:44;;;;;;;;;;;;;;;-144.99;100.00;52362.50;4931092;29;20076;-69
2022/06/02 06:51:17;;;;;;;;;;;;;;;-144.99;100.00;52378.78;4928954;29;19976;-70
2022/06/02 06:53:50;;;;;;;;;;;;;;;-144.99;100.00;52370.63;4924847;29;19989;-69
2022/06/02 06:56:21;;;;;;;;;;;;;;;-144.99;100.00;52358.41;4934770;29;19977;-69
2022/06/02 06:58:59;;;;;;;;;;;;;;;-144.99;100.00;52362.50;4934596;29;19973;-69
2022/06/02 07:01:32;;;;;;;;;;;;;;;-144.99;100.00;52362.50;4934586;29;19977;-69
2022/06/02 07:04:04;;;;;;;;;;;;;;;-144.99;100.00;52333.94;4926873;29;20446;-69
2022/06/02 07:06:35;;;;;;;;;;;;;;;-144.99;100.00;52338.03;4933446;29;20441;-68
2022/06/02 07:09:03;;;;;;;;;;;;;;;-144.99;100.00;52338.03;4931254;29;19981;-70
2022/06/02 07:14:23;;;;;;;;;;;;;;;-144.99;100.00;52370.63;4935055;29;20000;-69
2022/06/02 07:16:55;;;;;;;;;;;;;;;-144.99;100.00;52368.59;4922685;29;20024;-69
2022/06/02 07:19:27;;;;;;;;;;;;;;;-144.99;100.00;52350.25;4934160;29;20452;-69
2022/06/02 07:21:56;;;;;;;;;;;;;;;-144.99;100.00;52362.50;4934373;29;20007;-68
2022/06/02 07:24:30;;;;;;;;;;;;;;;-144.99;100.00;52374.72;4934272;29;20032;-68
2022/06/02 07:26:59;;;;;;;;;;;;;;;-144.99;100.00;52374.72;4933709;29;19999;-69
2022/06/02 07:29:35;;;;;;;;;;;;;;;-144.99;100.00;52333.94;4933824;29;19974;-69
2022/06/02 07:32:20;;;;;;;;;;;;;;;-144.99;100.00;52350.25;4933424;29;20375;-69
2022/06/02 07:34:58;;;;;;;;;;;;;;;-144.99;100.00;52352.28;4926729;29;20079;-69
2022/06/02 07:37:30;;;;;;;;;;;;;;;-144.99;100.00;52362.50;4925536;29;20430;-68
2022/06/02 07:40:15;;;;;;;;;;;;;;;-144.99;100.00;52346.19;4928138;29;20069;-69
2022/06/02 07:42:56;;;;;;;;;;;;;;;-144.99;100.00;52374.72;4932882;29;20351;-69
2022/06/02 07:45:32;;;;;;;;;;;;;;;-144.99;100.00;52374.72;4925525;29;20418;-69
2022/06/02 07:48:16;;;;;;;;;;;;;;;-144.99;100.00;52321.72;4927230;28;20002;-69
2022/06/02 07:50:46;;;;;;;;;;;;;;;-144.99;100.00;52395.09;4932640;29;19975;-68
2022/06/02 07:53:14;;;;;;;;;;;;;;;-144.99;100.00;52362.50;4934203;29;19995;-69
2022/06/02 07:55:46;;;;;;;;;;;;;;;-144.99;100.00;52338.03;4932490;29;19974;-70
2022/06/02 07:58:20;;;;;;;;;;;;;;;-144.99;100.00;52386.94;4931947;29;19997;-70
2022/06/02 08:00:51;;;;;;;;;;;;;;;-144.99;100.00;52317.66;4922264;29;19994;-70
2022/06/02 08:03:29;;;;;;;;;;;;;;;-144.99;100.00;52358.41;4930796;29;20349;-70
2022/06/02 08:06:00;;;;;;;;;;;;;;;-144.99;100.00;52333.94;4934405;29;19979;-69
2022/06/02 08:08:30;;;;;;;;;;;;;;;-144.99;100.00;52350.25;4932624;29;19967;-70
2022/06/02 08:11:05;;;;;;;;;;;;;;;-144.99;100.00;52331.91;4929953;29;20018;-70
2022/06/02 08:13:36;;;;;;;;;;;;;;;-144.99;100.00;52342.09;4933609;29;20337;-69
2022/06/02 08:16:07;;;;;;;;;;;;;;;-144.99;100.00;52325.81;4931093;29;20367;-69
2022/06/02 08:18:45;;;;;;;;;;;;;;;-144.99;100.00;52321.72;4934624;29;20476;-69
2022/06/02 08:21:17;;;;;;;;;;;;;;;-144.99;100.00;52340.06;4922245;29;19983;-69
2022/06/02 08:23:54;;;;;;;;;;;;;;;-144.99;100.00;52333.94;4935149;29;19982;-70
2022/06/02 08:26:24;;;;;;;;;;;;;;;-144.99;100.00;52293.19;4935583;29;19989;-69
2022/06/02 08:28:59;;;;;;;;;;;;;;;-144.99;100.00;52297.25;4936749;29;19981;-69
2022/06/02 08:31:40;;;;;;;;;;;;;;;-144.99;100.00;52295.22;4928985;29;20059;-70
2022/06/02 08:34:09;;;;;;;;;;;;;;;-144.99;100.00;52289.13;4936357;29;20326;-70
2022/06/02 08:36:44;;;;;;;;;;;;;;;-144.99;100.00;52321.72;4932204;29;20477;-69
2022/06/02 08:39:28;;;;;;;;;;;;;;;-144.99;99.22;52338.03;4928927;29;20074;-70
2022/06/02 08:42:19;;;;;;;;;;;;;;;-144.99;99.48;52325.81;4929206;29;20386;-70
2022/06/02 08:45:04;;;;;;;;;;;;;;;-144.99;98.56;52350.25;4918149;29;20059;-71
2022/06/02 08:47:49;;;;;;;;;;;;;;;-144.99;98.88;52346.19;4931722;29;19993;-71
2022/06/02 08:50:40;;;;;;;;;;;;;;;-144.99;100.00;52362.50;4932974;29;19978;-70
2022/06/02 08:53:33;;;;;;;;;;;;;;;-144.99;100.00;52370.63;4928527;29;19984;-71
2022/06/02 08:56:11;;;;;;;;;;;;;;;-144.99;100.00;52362.50;4892070;29;20114;-71
2022/06/02 08:58:55;;;;;;;;;;;;;;;-144.99;100.00;52336.00;4925996;29;20045;-68
2022/06/02 09:01:34;;;;;;;;;;;;;;;-144.99;100.00;52338.03;4932837;29;19978;-70
2022/06/02 09:04:24;;;;;;;;;;;;;;;-144.99;100.00;52329.88;4932563;29;19978;-70
2022/06/02 09:06:54;;;;;;;;;;;;;;;-144.99;100.00;52293.19;4913488;29;20459;-72
2022/06/02 09:09:42;;;;;;;;;;;;;;;-144.99;100.00;52338.03;4930779;29;19979;-71
2022/06/02 09:12:23;;;;;;;;;;;;;;;-144.99;100.00;52333.94;4925131;29;20429;-70
2022/06/02 09:15:17;;;;;;;;;;;;;;;-144.99;100.00;52338.03;4928948;29;20468;-71
2022/06/02 09:17:53;;;;;;;;;;;;;;;-144.99;100.00;52384.91;4927137;29;19990;-70
2022/06/02 09:20:39;;;;;;;;;;;;;;;-144.99;100.00;52301.34;4932927;29;19985;-70
2022/06/02 09:23:11;;;;;;;;;;;;;;;-144.99;100.00;52336.00;4931920;29;19986;-70
2022/06/02 09:25:55;;;;;;;;;;;;;;;-144.99;99.84;52354.34;4928867;29;20349;-69
2022/06/02 09:28:35;;;;;;;;;;;;;;;-144.99;99.85;52354.34;4931736;29;20161;-69
2022/06/02 09:31:11;;;;;;;;;;;;;;;-144.99;99.94;52366.56;4929261;29;20444;-70
2022/06/02 09:33:53;;;;;;;;;;;;;;;-144.99;100.00;52336.00;4929886;29;19989;-70
2022/06/02 09:36:32;;;;;;;;;;;;;;;-144.99;99.92;52342.09;4924259;29;19978;-70
2022/06/02 09:39:08;;;;;;;;;;;;;;;-144.99;99.70;52342.09;4930939;29;20001;-70
2022/06/02 09:41:45;;;;;;;;;;;;;;;-144.99;100.00;52333.94;4926860;29;19974;-69
2022/06/02 09:44:24;;;;;;;;;;;;;;;-144.99;100.00;52301.34;4932302;29;20033;-70
2022/06/02 09:47:11;;;;;;;;;;;;;;;-144.99;99.64;52315.59;4932587;29;19999;-71
2022/06/02 09:50:10;;;;;;;;;;;;;;;-144.99;99.46;52354.34;4932723;29;20046;-71
2022/06/02 09:52:46;;;;;;;;;;;;;;;-144.99;97.13;52319.69;4919515;29;20074;-71
2022/06/02 09:55:18;;;;;;;;;;;;;;;-144.99;95.12;52321.72;4931964;29;20148;-72
2022/06/02 09:58:05;;;;;;;;;;;;;;;-144.99;91.09;52350.25;4927510;29;20369;-71
2022/06/02 10:00:50;;;;;;;;;;;;;;;-144.99;90.88;52313.56;4921747;29;20344;-71
2022/06/02 10:03:29;;;;;;;;;;;;;;;-144.99;89.64;52321.72;4928780;29;19996;-71
2022/06/02 10:06:07;;;;;;;;;;;;;;;-144.99;88.81;52317.66;4932192;29;19985;-70
2022/06/02 10:08:42;;;;;;;;;;;;;;;-144.99;86.40;52325.81;4930741;29;19997;-71
2022/06/02 10:11:15;;;;;;;;;;;;;;;-144.99;83.51;52317.66;4932775;29;19978;-70
2022/06/02 10:14:08;;;;;;;;;;;;;;;-144.99;83.18;52327.84;4923892;29;20002;-70
2022/06/02 10:16:59;;;;;;;;;;;;;;;-144.99;82.66;52293.19;4934301;29;20021;-71
2022/06/02 10:19:46;;;;;;;;;;;;;;;-144.99;79.33;52283.00;4931756;29;19978;-71
2022/06/02 10:22:17;;;;;;;;;;;;;;;-144.99;76.86;52301.34;4927458;29;20072;-71
2022/06/02 10:25:00;;;;;;;;;;;;;;;-144.99;74.75;52268.72;4936087;29;20467;-71
2022/06/02 10:27:49;;;;;;;;;;;;;;;-144.99;73.29;52307.47;4936390;29;19988;-70
2022/06/02 10:30:33;;;;;;;;;;;;;;;-144.99;71.64;52305.41;4935503;29;19978;-70
2022/06/02 10:33:13;;;;;;;;;;;;;;;-144.99;68.70;52289.13;4914912;29;20094;-69
2022/06/02 10:35:54;;;;;;;;;;;;;;;-144.99;68.33;52291.16;4935057;29;19997;-70
2022/06/02 10:38:28;;;;;;;;;;;;;;;-144.99;68.49;52309.50;4933247;29;19995;-70
2022/06/02 10:41:06;;;;;;;;;;;;;;;-144.99;68.35;52280.97;4936357;29;19977;-70
2022/06/02 10:43:58;;;;;;;;;;;;;;;-144.99;65.71;52207.59;4936347;29;20016;-69
2022/06/02 10:46:42;;;;;;;;;;;;;;;-144.99;64.08;52268.72;4929322;29;20239;-70
2022/06/02 10:49:14;;;;;;;;;;;;;;;-144.99;63.83;52276.88;4927656;29;19978;-70
2022/06/02 10:51:54;;;;;;;;;;;;;;;-144.99;63.19;52268.72;4927200;29;20024;-70
2022/06/02 10:54:37;;;;;;;;;;;;;;;-144.99;62.60;52285.03;4928034;29;19998;-70
2022/06/02 10:57:25;;;;;;;;;;;;;;;-144.99;63.44;52305.41;4927399;29;20068;-70
2022/06/02 11:00:09;;;;;;;;;;;;;;;-144.99;64.50;52305.41;4932387;29;20442;-71
2022/06/02 11:02:54;;;;;;;;;;;;;;;-144.99;64.90;52301.34;4919477;29;19974;-69
2022/06/02 11:05:36;;;;;;;;;;;;;;;-144.99;64.50;52301.34;4935024;29;19977;-70
2022/06/02 11:08:24;;;;;;;;;;;;;;;-144.99;64.41;52285.03;4935523;29;19999;-70
2022/06/02 11:11:10;;;;;;;;;;;;;;;-144.99;64.26;52309.50;4935353;29;19974;-69
2022/06/02 11:13:54;;;;;;;;;;;;;;;-144.99;63.57;52264.66;4928429;29;19973;-70
2022/06/02 11:16:36;;;;;;;;;;;;;;;-144.99;63.24;52283.00;4927295;29;19985;-70
2022/06/02 11:19:15;;;;;;;;;;;;;;;-144.99;63.48;52297.25;4928516;29;20823;-71
2022/06/02 11:21:55;;;;;;;;;;;;;;;-144.99;61.93;52289.13;4926977;29;19989;-70
2022/06/02 11:24:46;;;;;;;;;;;;;;;-144.99;61.22;52268.72;4930403;29;20078;-70
2022/06/02 11:27:34;;;;;;;;;;;;;;;-144.99;59.33;52283.00;4934699;29;19993;-69
2022/06/02 11:30:27;;;;;;;;;;;;;;;-144.99;59.39;52297.25;4928402;29;19990;-70
2022/06/02 11:33:14;;;;;;;;;;;;;;;-144.99;59.33;52289.13;4904756;29;20029;-69
2022/06/02 11:35:55;;;;;;;;;;;;;;;-144.99;59.02;52293.19;4934386;29;19996;-70
2022/06/02 11:38:37;;;;;;;;;;;;;;;-144.99;59.72;52260.56;4932582;29;19995;-69
2022/06/02 11:41:11;;;;;;;;;;;;;;;-144.99;60.56;52313.56;4930364;29;19986;-70
2022/06/02 11:43:45;;;;;;;;;;;;;;;-144.99;60.70;52285.03;4935828;29;19974;-70
2022/06/02 11:46:20;;;;;;;;;;;;;;;-144.99;60.57;52232.03;4933607;29;19976;-70
2022/06/02 11:48:58;;;;;;;;;;;;;;;-144.99;59.15;52264.66;4928910;29;19973;-69
2022/06/02 11:51:43;;;;;;;;;;;;;;;-144.99;58.38;52236.13;4935295;29;19950;-71
2022/06/02 11:54:17;;;;;;;;;;;;;;;-144.99;56.78;52234.09;4932209;29;20098;-70
2022/06/02 11:56:51;;;;;;;;;;;;;;;-144.99;56.13;52232.03;4929661;29;19996;-69
2022/06/02 11:59:36;;;;;;;;;;;;;;;-144.99;54.86;52276.88;4934099;29;19972;-70
2022/06/02 12:02:16;;;;;;;;;;;;;;;-144.99;55.62;52244.28;4931783;29;20069;-71
2022/06/02 12:04:56;;;;;;;;;;;;;;;-144.99;55.92;52260.56;4930472;29;20339;-69
2022/06/02 12:07:37;;;;;;;;;;;;;;;-144.99;56.43;52236.13;4933768;29;19990;-71
2022/06/02 12:10:15;;;;;;;;;;;;;;;-144.99;54.20;52170.91;4931466;29;19981;-71
2022/06/02 12:12:51;;;;;;;;;;;;;;;-144.99;53.76;52234.09;4932006;29;19961;-71
2022/06/02 12:15:25;;;;;;;;;;;;;;;-144.99;53.18;52236.13;4925570;29;20472;-71
2022/06/02 12:18:04;;;;;;;;;;;;;;;-144.99;53.53;52264.66;4938052;29;20086;-71
2022/06/02 12:20:39;;;;;;;;;;;;;;;-144.99;54.80;52227.97;4929565;29;19975;-71
2022/06/02 12:23:13;;;;;;;;;;;;;;;-144.99;54.34;52223.88;4933860;29;19976;-71
2022/06/02 12:25:54;;;;;;;;;;;;;;;-144.99;53.32;52174.97;4933319;29;19975;-71
2022/06/02 12:28:36;;;;;;;;;;;;;;;-144.99;52.93;52232.03;4933487;29;20483;-70
2022/06/02 12:31:20;;;;;;;;;;;;;;;-144.99;52.57;52203.50;4931168;29;20298;-69
2022/06/02 12:33:54;;;;;;;;;;;;;;;-144.99;52.21;52236.13;4922488;29;19973;-70
2022/06/02 12:36:32;;;;;;;;;;;;;;;-144.99;52.13;52248.34;4933187;29;20343;-71
2022/06/02 12:39:28;;;;;;;;;;;;;;;-144.99;51.72;52187.19;4928218;29;19973;-71
2022/06/02 12:42:27;;;;;;;;;;;;;;;-144.99;51.85;52203.50;4896421;29;19977;-69
2022/06/02 12:45:11;;;;;;;;;;;;;;;-144.99;51.12;52193.31;4924576;29;19972;-70
2022/06/02 12:47:58;;;;;;;;;;;;;;;-144.99;50.01;52215.75;4950991;23;19973;-72
2022/06/02 12:50:35;;;;;;;;;;;;;;;-144.99;50.36;52158.66;4966943;28;19944;-72
2022/06/02 12:53:17;;;;;;;;;;;;;;;-144.99;48.69;52187.19;4971460;28;20600;-73
2022/06/02 12:55:58;;;;;;;;;;;;;;;-144.99;49.18;52244.28;4970433;28;19986;-72
2022/06/02 12:58:43;;;;;;;;;;;;;;;-144.99;48.27;52146.44;4951347;28;19976;-73
2022/06/02 13:01:15;;;;;;;;;;;;;;;-144.99;48.34;52219.81;4971598;28;19971;-72
2022/06/02 13:03:56;;;;;;;;;;;;;;;-144.99;48.39;52140.31;4966861;28;19962;-72
2022/06/02 13:06:37;;;;;;;;;;;;;;;-144.99;48.16;52154.59;4971210;28;19957;-72
2022/06/02 13:09:29;;;;;;;;;;;;;;;-144.99;48.22;52174.97;4969047;28;19962;-72
2022/06/02 13:12:02;;;;;;;;;;;;;;;-144.99;46.97;52121.97;4971432;28;20397;-72
2022/06/02 13:14:44;;;;;;;;;;;;;;;-144.99;46.99;52193.31;4972118;28;19947;-72
2022/06/02 13:17:26;;;;;;;;;;;;;;;-144.99;46.88;52219.81;4964818;28;19980;-72